Time;durP1;ratioP1;P1;durP2;ratioP2;P2;SDS_P1;SDS_P2;PMS_P1;PMS_P2;Temp;Humidity;BMP_temperature;BMP_pressure;BME280_temperature;BME280_humidity;BME280_pressure;Samples;Min_cycle;Max_cycle;Signal;HPM_P1;HPM_P2
2023/06/28 00:01:58;;;;;;;;;;;26.70;50.00;;;;;;4896735;29;19916;-90
2023/06/28 00:04:31;;;;;;;;;;;26.70;50.10;;;;;;4886607;29;19916;-90
2023/06/28 00:06:56;;;;;;;;;;;26.60;50.00;;;;;;4885536;29;20440;-90
2023/06/28 00:09:22;;;;;;;;;;;26.60;50.00;;;;;;4885925;29;19911;-90
2023/06/28 00:11:50;;;;;;;;;;;26.60;50.00;;;;;;4900483;29;20025;-90
2023/06/28 00:14:19;;;;;;;;;;;26.60;50.00;;;;;;4893110;29;20316;-90
2023/06/28 00:16:44;;;;;;;;;;;26.60;50.00;;;;;;4881899;29;20109;-90
2023/06/28 00:19:10;;;;;;;;;;;26.60;50.00;;;;;;4880857;29;20027;-90
2023/06/28 00:21:35;;;;;;;;;;;26.50;50.00;;;;;;4890368;29;19911;-90
2023/06/28 00:24:04;;;;;;;;;;;26.50;50.00;;;;;;4887118;29;19943;-90
2023/06/28 00:26:32;;;;;;;;;;;26.50;50.00;;;;;;4900614;29;19955;-90
2023/06/28 00:28:58;;;;;;;;;;;26.60;50.00;;;;;;4892209;29;19916;-90
2023/06/28 00:31:23;;;;;;;;;;;26.50;50.00;;;;;;4885729;29;19921;-90
2023/06/28 00:33:52;;;;;;;;;;;26.50;50.00;;;;;;4882424;29;19926;-90
2023/06/28 00:36:21;;;;;;;;;;;26.50;50.00;;;;;;4899225;29;19907;-90
2023/06/28 00:38:49;;;;;;;;;;;26.50;50.00;;;;;;4899102;29;19920;-90
2023/06/28 00:41:18;;;;;;;;;;;26.50;50.00;;;;;;4883815;29;20002;-90
2023/06/28 00:43:46;;;;;;;;;;;26.50;50.10;;;;;;4878575;29;19912;-90
2023/06/28 00:46:12;;;;;;;;;;;26.40;50.00;;;;;;4882532;29;19919;-90
2023/06/28 00:48:38;;;;;;;;;;;26.40;50.00;;;;;;4876031;29;19912;-90
2023/06/28 00:51:03;;;;;;;;;;;26.40;50.00;;;;;;4880920;29;20193;-90
2023/06/28 00:53:30;;;;;;;;;;;26.40;50.00;;;;;;4888553;29;19976;-90
2023/06/28 00:55:56;;;;;;;;;;;26.40;50.40;;;;;;4890835;29;19922;-90
2023/06/28 00:58:31;;;;;;;;;;;26.40;50.00;;;;;;4883100;29;19916;-91
2023/06/28 01:00:56;;;;;;;;;;;26.40;50.00;;;;;;4872260;29;19923;-90
2023/06/28 01:03:26;;;;;;;;;;;26.30;50.00;;;;;;4895851;29;19912;-90
2023/06/28 01:05:52;;;;;;;;;;;26.30;50.00;;;;;;4893183;29;19922;-90
2023/06/28 01:08:19;;;;;;;;;;;26.30;50.00;;;;;;4888940;29;19994;-90
2023/06/28 01:10:44;;;;;;;;;;;26.30;50.40;;;;;;4886098;29;19923;-90
2023/06/28 01:15:45;;;;;;;;;;;26.30;50.00;;;;;;5034214;23;19927;-90
2023/06/28 01:18:11;;;;;;;;;;;26.30;50.00;;;;;;4895509;29;19916;-90
2023/06/28 01:20:37;;;;;;;;;;;26.20;50.00;;;;;;4890488;29;20265;-90
2023/06/28 01:23:03;;;;;;;;;;;26.20;50.00;;;;;;4902272;29;19930;-91
2023/06/28 01:25:29;;;;;;;;;;;26.20;50.00;;;;;;4899517;29;19912;-91
2023/06/28 01:27:55;;;;;;;;;;;26.20;49.90;;;;;;4895008;29;20182;-91
2023/06/28 01:30:23;;;;;;;;;;;26.20;50.00;;;;;;4900911;29;20267;-91
2023/06/28 01:32:49;;;;;;;;;;;26.20;49.90;;;;;;4900045;29;20446;-90
2023/06/28 01:35:15;;;;;;;;;;;26.20;50.00;;;;;;4900263;29;19919;-90
2023/06/28 01:37:41;;;;;;;;;;;26.10;49.90;;;;;;4900357;29;19916;-91
2023/06/28 01:40:08;;;;;;;;;;;26.10;49.90;;;;;;4910764;29;19919;-90
2023/06/28 01:42:34;;;;;;;;;;;26.10;49.90;;;;;;4901490;29;20002;-91
2023/06/28 01:45:00;;;;;;;;;;;26.10;49.90;;;;;;4905974;29;20011;-91
2023/06/28 01:47:25;;;;;;;;;;;26.10;49.90;;;;;;4914729;29;20001;-90
2023/06/28 01:49:51;;;;;;;;;;;26.10;49.90;;;;;;4904717;29;19934;-90
2023/06/28 01:52:17;;;;;;;;;;;26.10;49.90;;;;;;4905201;29;19954;-90
2023/06/28 01:57:46;;;;;;;;;;;26.10;49.90;;;;;;4909825;29;19926;-90
2023/06/28 02:00:12;;;;;;;;;;;26.00;49.90;;;;;;4916160;29;20213;-90
2023/06/28 02:02:37;;;;;;;;;;;26.00;49.90;;;;;;4905076;29;19919;-91
2023/06/28 02:05:03;;;;;;;;;;;26.00;49.80;;;;;;4911101;29;20124;-90
2023/06/28 02:07:29;;;;;;;;;;;26.00;49.80;;;;;;4905492;29;19922;-90
2023/06/28 02:09:55;;;;;;;;;;;26.00;49.80;;;;;;4900035;29;19915;-90
2023/06/28 02:12:21;;;;;;;;;;;26.00;49.80;;;;;;4907781;29;19978;-90
2023/06/28 02:14:46;;;;;;;;;;;26.00;49.80;;;;;;4901423;29;19930;-91
2023/06/28 02:17:15;;;;;;;;;;;26.00;49.80;;;;;;4901271;29;19915;-91
2023/06/28 02:19:41;;;;;;;;;;;26.00;49.80;;;;;;4902501;29;20013;-91
2023/06/28 02:22:06;;;;;;;;;;;26.00;49.80;;;;;;4900333;29;19916;-91
2023/06/28 02:24:32;;;;;;;;;;;26.00;49.80;;;;;;4902896;29;20334;-91
2023/06/28 02:26:58;;;;;;;;;;;25.90;49.70;;;;;;4902375;29;19919;-91
2023/06/28 02:29:23;;;;;;;;;;;25.90;49.70;;;;;;4903437;29;19919;-91
2023/06/28 02:31:53;;;;;;;;;;;25.90;49.70;;;;;;4901329;29;20208;-91
2023/06/28 02:34:19;;;;;;;;;;;25.90;49.70;;;;;;4903558;29;19966;-90
2023/06/28 02:36:44;;;;;;;;;;;25.90;49.60;;;;;;4900066;29;19916;-91
2023/06/28 02:39:10;;;;;;;;;;;25.90;49.60;;;;;;4909322;29;19994;-91
2023/06/28 02:41:36;;;;;;;;;;;25.90;49.60;;;;;;4909612;29;19947;-90
2023/06/28 02:44:02;;;;;;;;;;;25.90;49.60;;;;;;4901503;29;19923;-90
2023/06/28 02:46:27;;;;;;;;;;;25.90;49.70;;;;;;4901944;29;20277;-91
2023/06/28 02:48:53;;;;;;;;;;;25.90;49.70;;;;;;4901194;29;20216;-90
2023/06/28 02:51:18;;;;;;;;;;;25.90;49.70;;;;;;4902667;29;19947;-91
2023/06/28 02:53:44;;;;;;;;;;;25.80;49.60;;;;;;4902153;29;19912;-91
2023/06/28 02:56:15;;;;;;;;;;;25.80;49.60;;;;;;4900947;29;19935;-90
2023/06/28 02:58:41;;;;;;;;;;;25.80;49.60;;;;;;4902705;29;20042;-90
2023/06/28 03:01:07;;;;;;;;;;;25.80;49.60;;;;;;4919387;29;20087;-89
2023/06/28 03:03:34;;;;;;;;;;;25.80;49.60;;;;;;4907249;29;19947;-90
2023/06/28 03:05:59;;;;;;;;;;;25.80;49.60;;;;;;4917084;29;20321;-90
2023/06/28 03:08:25;;;;;;;;;;;25.70;49.50;;;;;;4901110;29;19942;-90
2023/06/28 03:10:51;;;;;;;;;;;25.70;49.60;;;;;;4901737;29;20212;-91
2023/06/28 03:13:16;;;;;;;;;;;25.70;49.50;;;;;;4900642;29;19911;-91
2023/06/28 03:15:42;;;;;;;;;;;25.70;49.70;;;;;;4900967;29;20171;-90
2023/06/28 03:18:08;;;;;;;;;;;25.70;49.50;;;;;;4901738;29;19973;-90
2023/06/28 03:20:34;;;;;;;;;;;25.70;49.50;;;;;;4900302;29;19922;-91
2023/06/28 03:23:01;;;;;;;;;;;25.70;49.50;;;;;;4911407;29;20290;-91
2023/06/28 03:25:27;;;;;;;;;;;25.70;49.50;;;;;;4902429;29;19958;-91
2023/06/28 03:27:53;;;;;;;;;;;25.70;49.50;;;;;;4900631;29;19958;-90
2023/06/28 03:30:18;;;;;;;;;;;25.70;49.50;;;;;;4900661;29;19923;-91
2023/06/28 03:32:44;;;;;;;;;;;25.60;49.50;;;;;;4906774;29;19943;-90
2023/06/28 03:35:09;;;;;;;;;;;25.60;49.50;;;;;;4898190;29;20239;-91
2023/06/28 03:37:35;;;;;;;;;;;25.60;49.50;;;;;;4897410;29;20180;-91
2023/06/28 03:40:05;;;;;;;;;;;25.60;49.50;;;;;;4895686;29;20212;-91
2023/06/28 03:42:31;;;;;;;;;;;25.60;49.40;;;;;;4889833;29;20017;-90
2023/06/28 03:44:56;;;;;;;;;;;25.60;49.40;;;;;;4898327;29;20048;-91
2023/06/28 03:47:22;;;;;;;;;;;25.60;49.60;;;;;;4907845;29;20184;-90
2023/06/28 03:49:48;;;;;;;;;;;25.60;49.40;;;;;;4898098;29;19978;-90
2023/06/28 03:52:13;;;;;;;;;;;25.60;49.40;;;;;;4903609;29;20253;-91
2023/06/28 03:54:45;;;;;;;;;;;25.60;49.50;;;;;;4906530;29;19912;-91
2023/06/28 03:57:12;;;;;;;;;;;25.60;49.40;;;;;;4893029;29;19916;-90
2023/06/28 03:59:37;;;;;;;;;;;25.60;49.40;;;;;;4896539;29;20173;-91
2023/06/28 04:02:11;;;;;;;;;;;25.50;49.40;;;;;;4907148;29;19918;-90
2023/06/28 04:04:36;;;;;;;;;;;25.60;49.40;;;;;;4899120;29;19911;-91
2023/06/28 04:07:02;;;;;;;;;;;25.60;49.40;;;;;;4898723;29;20298;-91
2023/06/28 04:09:28;;;;;;;;;;;25.60;49.40;;;;;;4896562;29;19911;-91
2023/06/28 04:11:54;;;;;;;;;;;25.50;49.30;;;;;;4895091;29;19912;-91
2023/06/28 04:14:19;;;;;;;;;;;25.60;49.30;;;;;;4902154;29;19912;-91
2023/06/28 04:16:45;;;;;;;;;;;25.50;49.30;;;;;;4895891;29;19916;-91
2023/06/28 04:19:11;;;;;;;;;;;25.50;49.20;;;;;;4894081;29;19947;-91
2023/06/28 04:21:36;;;;;;;;;;;25.50;49.20;;;;;;4905837;29;19911;-91
2023/06/28 04:24:02;;;;;;;;;;;25.60;49.30;;;;;;4896419;29;20306;-91
2023/06/28 04:26:28;;;;;;;;;;;25.50;49.20;;;;;;4905483;29;19915;-90
2023/06/28 04:28:53;;;;;;;;;;;25.60;49.20;;;;;;4903683;29;19912;-91
2023/06/28 04:31:19;;;;;;;;;;;25.60;49.20;;;;;;4899382;29;19919;-91
2023/06/28 04:33:51;;;;;;;;;;;25.60;49.20;;;;;;4904916;29;19919;-91
2023/06/28 04:36:21;;;;;;;;;;;25.60;49.20;;;;;;4896620;29;19922;-91
2023/06/28 04:38:57;;;;;;;;;;;25.60;49.20;;;;;;4897868;29;20141;-91
2023/06/28 04:41:29;;;;;;;;;;;25.60;49.20;;;;;;4896294;29;19911;-91
2023/06/28 04:43:58;;;;;;;;;;;25.50;49.10;;;;;;4904941;29;19915;-91
2023/06/28 04:46:27;;;;;;;;;;;25.50;49.10;;;;;;4894463;29;19912;-91
2023/06/28 04:48:53;;;;;;;;;;;25.60;49.10;;;;;;4904268;29;20177;-91
2023/06/28 04:51:24;;;;;;;;;;;25.50;49.10;;;;;;4897471;29;19970;-91
2023/06/28 04:53:49;;;;;;;;;;;25.50;49.10;;;;;;4897161;29;19911;-91
2023/06/28 04:56:15;;;;;;;;;;;25.50;49.10;;;;;;4905247;29;20207;-91
2023/06/28 04:58:41;;;;;;;;;;;25.50;49.10;;;;;;4898159;29;20182;-91
2023/06/28 05:01:09;;;;;;;;;;;25.50;49.10;;;;;;4902339;29;20168;-91
2023/06/28 05:03:35;;;;;;;;;;;25.60;49.10;;;;;;4896490;29;19911;-91
2023/06/28 05:06:13;;;;;;;;;;;25.50;49.00;;;;;;4898278;29;19915;-91
2023/06/28 05:08:45;;;;;;;;;;;25.50;49.00;;;;;;4906442;29;19960;-91
2023/06/28 05:11:10;;;;;;;;;;;25.60;49.10;;;;;;4896896;29;20200;-91
2023/06/28 05:13:36;;;;;;;;;;;25.50;49.00;;;;;;4902229;29;19912;-90
2023/06/28 05:16:02;;;;;;;;;;;25.60;49.00;;;;;;4906178;29;19918;-91
2023/06/28 05:18:28;;;;;;;;;;;25.60;49.00;;;;;;4898702;29;19919;-91
2023/06/28 05:20:53;;;;;;;;;;;25.60;48.90;;;;;;4900076;29;19912;-91
2023/06/28 05:23:23;;;;;;;;;;;25.60;48.90;;;;;;4900290;29;19911;-91
2023/06/28 05:25:49;;;;;;;;;;;25.60;48.90;;;;;;4898536;29;20062;-90
2023/06/28 05:28:19;;;;;;;;;;;25.60;48.90;;;;;;4900038;29;19982;-91
2023/06/28 05:30:44;;;;;;;;;;;25.60;48.80;;;;;;4898416;29;19919;-91
2023/06/28 05:33:10;;;;;;;;;;;25.70;48.80;;;;;;4898179;29;20247;-91
2023/06/28 05:35:37;;;;;;;;;;;25.70;48.80;;;;;;4889445;29;19912;-91
2023/06/28 05:38:06;;;;;;;;;;;25.70;48.70;;;;;;4897407;29;20138;-91
2023/06/28 05:40:32;;;;;;;;;;;25.80;48.70;;;;;;4897952;29;19912;-91
2023/06/28 05:42:58;;;;;;;;;;;25.80;48.70;;;;;;4898109;29;20010;-91
2023/06/28 05:45:24;;;;;;;;;;;25.80;48.60;;;;;;4897961;29;20039;-91
2023/06/28 05:47:50;;;;;;;;;;;25.80;48.60;;;;;;4900272;29;19911;-91
2023/06/28 05:50:24;;;;;;;;;;;25.80;48.60;;;;;;4897019;29;19914;-91
2023/06/28 05:52:51;;;;;;;;;;;25.80;48.60;;;;;;4897561;29;20229;-91
2023/06/28 05:55:24;;;;;;;;;;;25.80;48.60;;;;;;4897032;29;20271;-91
2023/06/28 05:57:50;;;;;;;;;;;25.80;48.60;;;;;;4896984;29;19967;-91
2023/06/28 06:00:47;;;;;;;;;;;25.80;48.60;;;;;;4896550;29;20306;-91
2023/06/28 06:03:17;;;;;;;;;;;25.80;48.60;;;;;;4909650;29;19911;-91
2023/06/28 06:05:45;;;;;;;;;;;25.80;48.60;;;;;;4900952;29;19915;-91
2023/06/28 06:08:10;;;;;;;;;;;25.80;48.60;;;;;;4894247;29;20014;-91
2023/06/28 06:10:36;;;;;;;;;;;25.80;48.60;;;;;;4893001;29;20017;-91
2023/06/28 06:13:02;;;;;;;;;;;25.80;48.60;;;;;;4893544;29;19942;-91
2023/06/28 06:15:27;;;;;;;;;;;25.80;48.60;;;;;;4893669;29;20002;-90
2023/06/28 06:17:53;;;;;;;;;;;25.80;48.60;;;;;;4894037;29;20203;-91
2023/06/28 06:20:19;;;;;;;;;;;25.80;48.70;;;;;;4892706;29;20173;-91
2023/06/28 06:22:44;;;;;;;;;;;25.80;48.70;;;;;;4891748;29;19922;-91
2023/06/28 06:25:10;;;;;;;;;;;25.80;48.70;;;;;;4892735;29;19911;-91
2023/06/28 06:27:36;;;;;;;;;;;25.80;48.70;;;;;;4898585;29;19937;-91
2023/06/28 06:30:02;;;;;;;;;;;25.70;48.70;;;;;;4892812;29;19911;-91
2023/06/28 06:32:28;;;;;;;;;;;25.70;48.70;;;;;;4903673;29;19975;-91
2023/06/28 06:34:57;;;;;;;;;;;25.70;48.70;;;;;;4893580;29;19918;-90
2023/06/28 06:37:26;;;;;;;;;;;25.70;48.70;;;;;;4891750;29;20137;-91
2023/06/28 06:39:53;;;;;;;;;;;25.70;48.70;;;;;;4891426;29;20080;-91
2023/06/28 06:42:20;;;;;;;;;;;25.70;48.70;;;;;;4888681;29;20073;-91
2023/06/28 06:44:45;;;;;;;;;;;25.70;48.70;;;;;;4890146;29;19922;-91
2023/06/28 06:47:11;;;;;;;;;;;25.70;48.80;;;;;;4888836;29;20214;-91
2023/06/28 06:49:37;;;;;;;;;;;25.70;48.80;;;;;;4893200;29;20215;-90
2023/06/28 06:52:03;;;;;;;;;;;25.70;48.80;;;;;;4895835;29;19946;-91
2023/06/28 06:54:31;;;;;;;;;;;25.70;48.80;;;;;;4897559;29;19916;-91
2023/06/28 06:57:02;;;;;;;;;;;25.70;48.90;;;;;;4896599;29;20025;-91
2023/06/28 06:59:33;;;;;;;;;;;25.60;49.20;;;;;;4896536;29;20146;-91
2023/06/28 07:02:05;;;;;;;;;;;25.60;48.80;;;;;;4892474;29;20316;-91
2023/06/28 07:04:31;;;;;;;;;;;25.60;48.80;;;;;;4904441;29;19911;-90
2023/06/28 07:06:57;;;;;;;;;;;25.60;48.80;;;;;;4893674;29;19983;-91
2023/06/28 07:09:24;;;;;;;;;;;25.60;48.80;;;;;;4894115;29;19919;-91
2023/06/28 07:11:50;;;;;;;;;;;25.70;48.80;;;;;;4890213;29;19911;-91
2023/06/28 07:14:15;;;;;;;;;;;25.70;48.80;;;;;;4893468;29;19937;-91
2023/06/28 07:16:45;;;;;;;;;;;25.70;48.70;;;;;;4889289;29;19958;-91
2023/06/28 07:19:11;;;;;;;;;;;25.70;48.70;;;;;;4873810;29;19995;-92
2023/06/28 07:21:44;;;;;;;;;;;25.80;48.70;;;;;;4891275;29;19920;-91
2023/06/28 07:24:12;;;;;;;;;;;25.80;48.70;;;;;;4905746;29;19919;-91
2023/06/28 07:26:38;;;;;;;;;;;25.80;48.60;;;;;;4893708;29;20013;-91
2023/06/28 07:29:04;;;;;;;;;;;25.80;48.60;;;;;;4893331;29;20229;-91
2023/06/28 07:31:30;;;;;;;;;;;25.90;48.60;;;;;;4892239;29;19931;-91
2023/06/28 07:33:56;;;;;;;;;;;25.90;48.60;;;;;;4892234;29;20034;-91
2023/06/28 07:36:21;;;;;;;;;;;25.90;48.60;;;;;;4893012;29;19911;-91
2023/06/28 07:38:49;;;;;;;;;;;25.90;48.60;;;;;;4892828;29;20164;-91
2023/06/28 07:41:19;;;;;;;;;;;25.90;48.60;;;;;;4899501;29;19911;-91
2023/06/28 07:43:45;;;;;;;;;;;25.90;48.60;;;;;;4891748;29;19916;-91
2023/06/28 07:46:11;;;;;;;;;;;25.90;48.60;;;;;;4890246;29;19916;-91
2023/06/28 07:48:37;;;;;;;;;;;25.90;48.60;;;;;;4888639;29;19927;-91
2023/06/28 07:51:05;;;;;;;;;;;25.90;48.60;;;;;;4897937;29;19911;-91
2023/06/28 07:53:31;;;;;;;;;;;25.90;48.60;;;;;;4906511;29;19915;-91
2023/06/28 07:55:56;;;;;;;;;;;25.90;48.50;;;;;;4903330;29;19976;-91
2023/06/28 07:58:23;;;;;;;;;;;25.90;48.50;;;;;;4891843;29;20255;-91
2023/06/28 08:00:48;;;;;;;;;;;25.90;48.50;;;;;;4889947;29;20006;-91
2023/06/28 08:03:23;;;;;;;;;;;25.90;48.50;;;;;;4889867;29;20006;-91
2023/06/28 08:05:49;;;;;;;;;;;25.90;48.50;;;;;;4886958;29;19931;-91
2023/06/28 08:08:15;;;;;;;;;;;26.00;48.60;;;;;;4886309;29;19916;-91
2023/06/28 08:10:40;;;;;;;;;;;26.00;48.60;;;;;;4895003;29;19915;-91
2023/06/28 08:13:06;;;;;;;;;;;25.90;48.50;;;;;;4889113;29;19922;-91
2023/06/28 08:15:36;;;;;;;;;;;25.90;48.50;;;;;;4890514;29;19950;-91
2023/06/28 08:18:02;;;;;;;;;;;25.90;48.50;;;;;;4889201;29;20383;-91
2023/06/28 08:20:28;;;;;;;;;;;26.00;48.60;;;;;;4888939;29;20012;-90
2023/06/28 08:22:54;;;;;;;;;;;26.00;48.60;;;;;;4901104;29;20098;-90
2023/06/28 08:25:20;;;;;;;;;;;26.00;48.50;;;;;;4888040;29;19926;-91
2023/06/28 08:27:50;;;;;;;;;;;26.00;48.60;;;;;;4901783;29;19978;-91
2023/06/28 08:30:16;;;;;;;;;;;26.00;48.60;;;;;;4887594;29;19994;-91
2023/06/28 08:32:43;;;;;;;;;;;26.00;48.60;;;;;;4897297;29;19919;-91
2023/06/28 08:35:08;;;;;;;;;;;26.00;48.60;;;;;;4890542;29;19961;-91
2023/06/28 08:37:34;;;;;;;;;;;26.00;48.60;;;;;;4902986;29;20013;-91
2023/06/28 08:40:04;;;;;;;;;;;26.00;48.50;;;;;;4901140;29;19912;-91
2023/06/28 08:42:32;;;;;;;;;;;26.00;48.50;;;;;;4893178;29;20299;-91
2023/06/28 08:45:01;;;;;;;;;;;26.10;48.50;;;;;;4902459;29;19919;-91
2023/06/28 08:47:29;;;;;;;;;;;26.10;48.50;;;;;;4888049;29;19922;-91
2023/06/28 08:49:56;;;;;;;;;;;26.10;48.50;;;;;;4878863;29;19939;-91
2023/06/28 08:52:22;;;;;;;;;;;26.10;48.50;;;;;;4892652;29;20268;-91
2023/06/28 08:54:50;;;;;;;;;;;26.10;48.50;;;;;;4894977;29;19921;-91
2023/06/28 08:57:16;;;;;;;;;;;26.10;48.50;;;;;;4904308;29;19926;-91
2023/06/28 08:59:42;;;;;;;;;;;26.10;48.40;;;;;;4894239;29;19919;-91
2023/06/28 09:02:08;;;;;;;;;;;26.20;48.50;;;;;;4894205;29;20006;-90
2023/06/28 09:04:34;;;;;;;;;;;26.20;48.50;;;;;;4892969;29;19911;-91
2023/06/28 09:07:01;;;;;;;;;;;26.10;48.50;;;;;;4894764;29;19941;-91
2023/06/28 09:09:28;;;;;;;;;;;26.10;48.50;;;;;;4900523;29;19922;-91
2023/06/28 09:11:56;;;;;;;;;;;26.10;48.60;;;;;;4893521;29;19921;-91
2023/06/28 09:14:27;;;;;;;;;;;26.10;48.60;;;;;;4891809;29;19918;-90
2023/06/28 09:16:53;;;;;;;;;;;26.10;48.60;;;;;;4883272;29;20325;-90
2023/06/28 09:19:19;;;;;;;;;;;26.10;48.60;;;;;;4891985;29;19924;-91
2023/06/28 09:21:45;;;;;;;;;;;26.20;48.60;;;;;;4886536;29;19922;-90
2023/06/28 09:24:13;;;;;;;;;;;26.20;48.60;;;;;;4892366;29;19915;-90
2023/06/28 09:26:53;;;;;;;;;;;26.20;48.60;;;;;;4895434;29;20132;-90
2023/06/28 09:29:20;;;;;;;;;;;26.20;48.60;;;;;;4888649;29;19920;-91
2023/06/28 09:31:55;;;;;;;;;;;26.20;48.50;;;;;;4906246;29;19920;-91
2023/06/28 09:34:28;;;;;;;;;;;26.30;48.60;;;;;;4894439;29;20292;-90
2023/06/28 09:36:54;;;;;;;;;;;26.30;48.50;;;;;;4886802;29;19966;-90
2023/06/28 09:39:35;;;;;;;;;;;26.30;48.50;;;;;;4912887;29;19950;-90
2023/06/28 09:42:01;;;;;;;;;;;26.30;48.50;;;;;;4903921;29;19915;-90
2023/06/28 09:44:28;;;;;;;;;;;26.30;48.50;;;;;;4889936;29;19954;-90
2023/06/28 09:46:59;;;;;;;;;;;26.30;48.50;;;;;;4885626;29;19958;-90
2023/06/28 09:49:26;;;;;;;;;;;26.40;48.50;;;;;;4889505;29;19922;-90
2023/06/28 09:52:02;;;;;;;;;;;26.40;48.50;;;;;;4891932;29;20194;-90
2023/06/28 09:54:44;;;;;;;;;;;26.40;48.50;;;;;;4886478;29;20247;-91
2023/06/28 09:57:10;;;;;;;;;;;26.40;48.50;;;;;;4888962;29;20037;-90
2023/06/28 09:59:36;;;;;;;;;;;26.40;48.90;;;;;;4894741;29;20086;-92
2023/06/28 10:02:12;;;;;;;;;;;26.40;48.50;;;;;;4891948;29;20343;-90
2023/06/28 10:04:38;;;;;;;;;;;26.40;48.50;;;;;;4888314;29;19927;-91
2023/06/28 10:07:05;;;;;;;;;;;26.40;48.50;;;;;;4892628;29;20018;-90
2023/06/28 10:09:40;;;;;;;;;;;26.50;48.50;;;;;;4892046;29;19927;-91
2023/06/28 10:12:18;;;;;;;;;;;26.50;48.40;;;;;;4903648;29;19925;-91
2023/06/28 10:14:48;;;;;;;;;;;26.60;48.40;;;;;;4885189;29;19915;-90
2023/06/28 10:17:14;;;;;;;;;;;26.60;48.40;;;;;;4890684;29;19965;-90
2023/06/28 10:19:40;;;;;;;;;;;26.60;48.40;;;;;;4884701;29;19967;-91
2023/06/28 10:22:06;;;;;;;;;;;26.60;48.30;;;;;;4900595;29;20066;-90
2023/06/28 10:24:40;;;;;;;;;;;26.70;48.40;;;;;;4903554;29;20002;-91
2023/06/28 10:27:06;;;;;;;;;;;26.70;48.40;;;;;;4901476;29;19915;-91
2023/06/28 10:29:32;;;;;;;;;;;26.80;48.40;;;;;;4892195;29;20255;-91
2023/06/28 10:31:57;;;;;;;;;;;26.80;48.40;;;;;;4889923;29;19994;-90
2023/06/28 10:34:24;;;;;;;;;;;26.80;48.30;;;;;;4889929;29;19915;-91
2023/06/28 10:36:49;;;;;;;;;;;26.80;48.40;;;;;;4887222;29;19915;-90
2023/06/28 10:39:15;;;;;;;;;;;26.80;48.40;;;;;;4891638;29;19937;-91
2023/06/28 10:41:41;;;;;;;;;;;26.80;48.40;;;;;;4889326;29;20002;-90
2023/06/28 10:44:08;;;;;;;;;;;26.90;48.40;;;;;;4893462;29;19915;-91
2023/06/28 10:46:36;;;;;;;;;;;26.90;48.40;;;;;;4899322;29;19978;-90
2023/06/28 10:49:03;;;;;;;;;;;26.90;48.30;;;;;;4903390;29;20158;-91
2023/06/28 10:51:33;;;;;;;;;;;27.00;48.40;;;;;;4891574;29;19954;-91
2023/06/28 10:54:13;;;;;;;;;;;27.00;48.40;;;;;;4885223;29;20054;-90
2023/06/28 10:56:48;;;;;;;;;;;27.00;48.40;;;;;;4890848;29;19911;-91
2023/06/28 10:59:14;;;;;;;;;;;27.00;48.40;;;;;;4899608;29;20220;-90
2023/06/28 11:02:06;;;;;;;;;;;26.90;48.40;;;;;;4891282;29;20001;-91
2023/06/28 11:04:32;;;;;;;;;;;26.90;48.40;;;;;;4881284;29;19959;-91
2023/06/28 11:07:03;;;;;;;;;;;26.90;48.50;;;;;;4887677;29;19920;-91
2023/06/28 11:09:29;;;;;;;;;;;26.90;48.90;;;;;;4895112;29;20324;-90
2023/06/28 11:11:56;;;;;;;;;;;26.90;48.50;;;;;;4887382;29;19912;-90
2023/06/28 11:14:22;;;;;;;;;;;26.90;48.50;;;;;;4880378;29;19927;-90
2023/06/28 11:16:48;;;;;;;;;;;26.90;48.50;;;;;;4896132;29;19930;-91
2023/06/28 11:19:15;;;;;;;;;;;26.90;48.50;;;;;;4889642;29;19911;-90
2023/06/28 11:21:41;;;;;;;;;;;26.90;48.50;;;;;;4896849;29;19939;-91
2023/06/28 11:24:07;;;;;;;;;;;26.90;48.50;;;;;;4885182;29;20009;-91
2023/06/28 11:26:33;;;;;;;;;;;27.00;48.60;;;;;;4887152;29;19959;-90
2023/06/28 11:28:59;;;;;;;;;;;27.00;48.60;;;;;;4893351;29;19962;-91
2023/06/28 11:31:36;;;;;;;;;;;27.00;48.60;;;;;;4890342;29;20060;-91
2023/06/28 11:34:02;;;;;;;;;;;26.90;48.60;;;;;;4896907;29;20018;-90
2023/06/28 11:36:29;;;;;;;;;;;26.90;48.60;;;;;;4888252;29;19911;-91
2023/06/28 11:38:55;;;;;;;;;;;26.90;48.70;;;;;;4897042;29;19919;-91
2023/06/28 11:41:21;;;;;;;;;;;26.90;48.70;;;;;;4891456;29;20306;-91
2023/06/28 11:43:47;;;;;;;;;;;26.90;48.70;;;;;;4900548;29;19981;-91
2023/06/28 11:46:20;;;;;;;;;;;26.90;48.70;;;;;;4888710;29;19951;-90
2023/06/28 11:48:47;;;;;;;;;;;26.90;48.70;;;;;;4879161;29;19912;-90
2023/06/28 11:51:13;;;;;;;;;;;26.90;48.70;;;;;;4896465;29;20081;-90
2023/06/28 11:53:39;;;;;;;;;;;26.90;48.70;;;;;;4888668;29;19911;-91
2023/06/28 11:56:04;;;;;;;;;;;27.00;48.70;;;;;;4889905;29;19926;-90
2023/06/28 11:58:31;;;;;;;;;;;27.00;48.70;;;;;;4887566;29;19919;-91
2023/06/28 12:01:00;;;;;;;;;;;27.10;48.80;;;;;;4900256;29;20090;-91
2023/06/28 12:03:29;;;;;;;;;;;27.10;48.60;;;;;;4888954;29;20067;-90
2023/06/28 12:05:56;;;;;;;;;;;27.20;48.60;;;;;;4895908;29;19924;-90
2023/06/28 12:08:21;;;;;;;;;;;27.20;48.50;;;;;;4882176;29;19979;-91
2023/06/28 12:10:47;;;;;;;;;;;27.20;48.50;;;;;;4899982;29;19916;-91
2023/06/28 12:13:23;;;;;;;;;;;27.30;48.50;;;;;;4890412;29;19971;-90
2023/06/28 12:15:49;;;;;;;;;;;27.30;48.50;;;;;;4895574;29;19919;-90
2023/06/28 12:18:15;;;;;;;;;;;27.30;48.50;;;;;;4890159;29;19915;-90
2023/06/28 12:20:40;;;;;;;;;;;27.30;48.50;;;;;;4895892;29;19938;-91
2023/06/28 12:23:13;;;;;;;;;;;27.30;48.50;;;;;;4894128;29;20192;-91
2023/06/28 12:25:42;;;;;;;;;;;27.30;48.50;;;;;;4886084;29;19943;-90
2023/06/28 12:28:11;;;;;;;;;;;27.30;48.50;;;;;;4890209;29;19921;-91
2023/06/28 12:30:37;;;;;;;;;;;27.40;48.60;;;;;;4904247;29;19962;-90
2023/06/28 12:33:06;;;;;;;;;;;27.30;48.50;;;;;;4893786;29;19954;-91
2023/06/28 12:35:35;;;;;;;;;;;27.40;48.60;;;;;;4900110;29;19911;-91
2023/06/28 12:38:02;;;;;;;;;;;27.40;48.60;;;;;;4891638;29;19916;-91
2023/06/28 12:40:29;;;;;;;;;;;27.40;48.60;;;;;;4889312;29;20023;-91
2023/06/28 12:43:30;;;;;;;;;;;27.40;49.00;;;;;;4888852;29;20018;-91
2023/06/28 12:45:56;;;;;;;;;;;27.40;48.60;;;;;;4849172;29;19994;-90
2023/06/28 12:48:22;;;;;;;;;;;27.40;48.60;;;;;;4900726;29;19919;-91
2023/06/28 12:50:50;;;;;;;;;;;27.40;48.60;;;;;;4888851;29;19911;-91
2023/06/28 12:53:16;;;;;;;;;;;27.40;48.60;;;;;;4898443;29;20006;-91
2023/06/28 12:55:42;;;;;;;;;;;27.40;48.70;;;;;;4889860;29;20243;-90
2023/06/28 12:58:07;;;;;;;;;;;27.40;48.60;;;;;;4895890;29;19919;-91
2023/06/28 13:00:35;;;;;;;;;;;27.40;48.60;;;;;;4885698;29;19911;-91
2023/06/28 13:03:05;;;;;;;;;;;27.40;48.60;;;;;;4889831;29;19912;-90
2023/06/28 13:05:31;;;;;;;;;;;27.40;48.60;;;;;;4899231;29;19957;-90
2023/06/28 13:07:59;;;;;;;;;;;27.40;48.60;;;;;;4885800;29;19954;-91
2023/06/28 13:10:25;;;;;;;;;;;27.40;48.60;;;;;;4886454;29;19999;-91
2023/06/28 13:12:50;;;;;;;;;;;27.40;48.70;;;;;;4885644;29;20236;-91
2023/06/28 13:15:16;;;;;;;;;;;27.40;48.70;;;;;;4886857;29;19919;-91
2023/06/28 13:17:42;;;;;;;;;;;27.40;48.70;;;;;;4886472;29;19963;-91
2023/06/28 13:20:08;;;;;;;;;;;27.40;48.70;;;;;;4887268;29;20177;-91
2023/06/28 13:22:33;;;;;;;;;;;27.40;48.70;;;;;;4886458;29;19912;-90
2023/06/28 13:24:59;;;;;;;;;;;27.50;48.70;;;;;;4888988;29;19919;-91
2023/06/28 13:27:25;;;;;;;;;;;27.50;48.70;;;;;;4891509;29;19938;-91
2023/06/28 13:29:50;;;;;;;;;;;27.50;48.70;;;;;;4887857;29;20071;-90
2023/06/28 13:32:16;;;;;;;;;;;27.50;48.70;;;;;;4888711;29;19919;-90
2023/06/28 13:34:43;;;;;;;;;;;27.60;48.70;;;;;;4891623;29;19915;-91
2023/06/28 13:37:08;;;;;;;;;;;27.60;48.70;;;;;;4899833;29;20012;-91
2023/06/28 13:39:34;;;;;;;;;;;27.60;48.70;;;;;;4895276;29;19923;-90
2023/06/28 13:42:00;;;;;;;;;;;27.60;48.70;;;;;;4894903;29;20216;-90
2023/06/28 13:44:25;;;;;;;;;;;27.60;48.70;;;;;;4904035;29;20083;-90
2023/06/28 13:46:51;;;;;;;;;;;27.60;48.70;;;;;;4895044;29;19915;-91
2023/06/28 13:49:17;;;;;;;;;;;27.70;48.70;;;;;;4901198;29;20196;-91
2023/06/28 13:51:43;;;;;;;;;;;27.70;48.70;;;;;;4892891;29;19916;-91
2023/06/28 13:54:09;;;;;;;;;;;27.70;48.80;;;;;;4880255;29;20018;-91
2023/06/28 13:56:34;;;;;;;;;;;27.70;48.80;;;;;;4892916;29;20458;-91
2023/06/28 13:59:00;;;;;;;;;;;27.70;48.80;;;;;;4903990;29;19915;-90
2023/06/28 14:01:26;;;;;;;;;;;27.70;48.70;;;;;;4892064;29;19919;-91
2023/06/28 14:03:51;;;;;;;;;;;27.70;48.70;;;;;;4900170;29;20223;-91
2023/06/28 14:06:17;;;;;;;;;;;27.70;48.70;;;;;;4901960;29;20172;-90
2023/06/28 14:08:43;;;;;;;;;;;27.70;48.90;;;;;;4888099;29;20146;-91
2023/06/28 14:11:08;;;;;;;;;;;27.70;48.70;;;;;;4893434;29;19911;-91
2023/06/28 14:13:34;;;;;;;;;;;27.80;48.80;;;;;;4895468;29;19957;-91
2023/06/28 14:16:00;;;;;;;;;;;27.80;48.80;;;;;;4893831;29;19919;-91
2023/06/28 14:18:25;;;;;;;;;;;27.80;48.80;;;;;;4900130;29;19955;-91
2023/06/28 14:20:51;;;;;;;;;;;27.80;48.80;;;;;;4904443;29;20267;-91
2023/06/28 14:23:17;;;;;;;;;;;27.80;48.80;;;;;;4891233;29;19912;-90